createdAt,value
2023-02-24T00:01:18.868Z,101533.53
2023-02-24T00:06:22.803Z,101530.31
2023-02-24T00:11:28.129Z,101532.41
2023-02-24T00:16:33.855Z,101522.50
2023-02-24T00:21:37.898Z,101517.50
2023-02-24T00:26:42.254Z,101511.84
2023-02-24T00:31:48.005Z,101504.25
2023-02-24T00:36:54.978Z,101506.72
2023-02-24T00:42:04.548Z,101490.91
2023-02-24T00:47:11.871Z,101494.37
2023-02-24T00:52:18.782Z,101484.13
2023-02-24T00:57:23.067Z,101481.56
2023-02-24T01:02:28.207Z,101468.66
2023-02-24T01:07:31.905Z,101473.78
2023-02-24T01:12:50.299Z,101456.84
2023-02-24T01:17:55.612Z,101445.44
2023-02-24T01:22:59.345Z,101441.47
2023-02-24T01:28:03.052Z,101440.09
2023-02-24T01:33:08.446Z,101437.53
2023-02-24T01:38:12.438Z,101434.75
2023-02-24T01:43:17.163Z,101424.59
2023-02-24T01:48:22.283Z,101418.22
2023-02-24T01:53:26.081Z,101422.25
2023-02-24T01:58:32.774Z,101400.31
2023-02-24T02:03:41.662Z,101399.28
2023-02-24T02:08:47.435Z,101380.69
2023-02-24T02:13:53.373Z,101367.78
2023-02-24T02:19:08.621Z,101365.41
2023-02-24T02:24:25.359Z,101352.47
2023-02-24T02:30:13.838Z,101348.87
2023-02-24T02:35:23.745Z,101339.03
2023-02-24T02:40:37.086Z,101332.94
2023-02-24T02:45:47.791Z,101329.31
2023-02-24T02:50:55.760Z,101323.50
2023-02-24T02:56:01.864Z,101310.25
2023-02-24T03:01:07.591Z,101311.84
2023-02-24T03:06:16.727Z,101311.13
2023-02-24T03:11:22.181Z,101308.34
2023-02-24T03:16:28.257Z,101301.72
2023-02-24T03:21:38.067Z,101297.94
2023-02-24T03:26:49.260Z,101291.94
2023-02-24T03:32:00.458Z,101280.41
2023-02-24T03:37:06.817Z,101274.28
2023-02-24T03:42:15.010Z,101277.37
2023-02-24T03:47:20.476Z,101265.25
2023-02-24T03:52:35.044Z,101265.62
2023-02-24T03:57:59.908Z,101265.62
2023-02-24T04:03:13.001Z,101247.00
2023-02-24T04:08:23.393Z,101242.25
2023-02-24T04:13:35.361Z,101227.84
2023-02-24T04:18:41.706Z,101224.50
2023-02-24T04:23:48.473Z,101226.03
2023-02-24T04:28:54.032Z,101225.56
2023-02-24T04:34:00.130Z,101220.09
2023-02-24T04:39:07.662Z,101224.19
2023-02-24T04:44:11.751Z,101224.59
2023-02-24T04:49:16.022Z,101211.81
2023-02-24T04:54:24.287Z,101205.19
2023-02-24T04:59:28.822Z,101206.09
2023-02-24T05:04:38.849Z,101199.94
2023-02-24T05:09:44.104Z,101188.31
2023-02-24T05:14:49.423Z,101173.38
2023-02-24T05:20:10.869Z,101167.78
2023-02-24T05:25:16.186Z,101153.41
2023-02-24T05:30:20.503Z,101156.56
2023-02-24T05:35:24.733Z,101147.12
2023-02-24T05:40:30.285Z,101151.34
2023-02-24T05:45:34.510Z,101142.91
2023-02-24T05:50:39.151Z,101141.25
2023-02-24T05:55:45.033Z,101139.47
2023-02-24T06:00:48.767Z,101130.97
2023-02-24T06:05:54.218Z,101119.00
2023-02-24T06:10:59.812Z,101112.34
2023-02-24T06:16:03.606Z,101095.41
2023-02-24T06:21:08.313Z,101095.56
2023-02-24T06:26:19.148Z,101085.31
2023-02-24T06:31:23.587Z,101076.53
2023-02-24T06:36:27.502Z,101064.56
2023-02-24T06:41:32.969Z,101062.28
2023-02-24T06:46:37.021Z,101055.69
2023-02-24T06:51:41.220Z,101053.50
2023-02-24T06:56:47.766Z,101041.63
2023-02-24T07:01:53.937Z,101039.91
2023-02-24T07:07:02.911Z,101032.34
2023-02-24T07:12:11.106Z,101030.81
2023-02-24T07:17:16.606Z,101009.22
2023-02-24T07:22:25.023Z,101012.59
2023-02-24T07:27:30.259Z,101018.12
2023-02-24T07:32:34.009Z,101017.41
2023-02-24T07:37:37.786Z,101015.41
2023-02-24T07:42:43.067Z,101009.44
2023-02-24T07:47:46.835Z,101010.31
2023-02-24T07:52:50.575Z,100996.94
2023-02-24T07:57:57.069Z,101001.47
2023-02-24T08:03:00.803Z,100984.75
2023-02-24T08:08:04.537Z,100965.66
2023-02-24T08:13:11.948Z,100958.09
2023-02-24T08:18:19.927Z,100954.12
2023-02-24T08:23:24.174Z,100950.56
2023-02-24T08:28:29.212Z,100953.69
2023-02-24T08:33:33.130Z,100950.16
2023-02-24T08:38:44.946Z,100943.94
2023-02-24T08:43:50.299Z,100932.91
2023-02-24T08:48:56.462Z,100911.69
2023-02-24T08:54:01.949Z,100910.44
2023-02-24T08:59:07.441Z,100895.19
2023-02-24T09:04:13.058Z,100884.41
2023-02-24T09:09:21.150Z,100873.22
2023-02-24T09:14:29.451Z,100863.22
2023-02-24T09:19:55.516Z,100854.69
2023-02-24T09:25:21.466Z,100847.56
2023-02-24T09:30:38.610Z,100843.37
2023-02-24T09:35:43.228Z,100827.19
2023-02-24T09:40:52.130Z,100826.53
2023-02-24T09:46:14.288Z,100833.34
2023-02-24T09:51:23.000Z,100816.97
2023-02-24T09:56:32.816Z,100816.41
2023-02-24T10:01:46.805Z,100815.69
2023-02-24T10:06:55.204Z,100806.03
2023-02-24T10:12:04.959Z,100790.75
2023-02-24T10:17:25.908Z,100789.94
2023-02-24T10:22:50.333Z,100791.53
2023-02-24T10:28:05.102Z,100796.44
2023-02-24T10:33:25.359Z,100800.28
2023-02-24T10:38:29.371Z,100778.00
2023-02-24T10:43:45.330Z,100774.28
2023-02-24T10:49:00.547Z,100771.31
2023-02-24T10:54:25.726Z,100767.25
2023-02-24T10:59:58.294Z,100771.16
2023-02-24T11:05:24.190Z,100762.28
2023-02-24T11:10:32.725Z,100758.16
2023-02-24T11:15:56.701Z,100747.66
2023-02-24T11:21:05.473Z,100739.97
2023-02-24T11:26:17.027Z,100724.84
2023-02-24T11:31:41.459Z,100730.16
2023-02-24T11:36:54.922Z,100716.62
2023-02-24T11:42:02.646Z,100714.03
2023-02-24T11:47:12.344Z,100709.94
2023-02-24T11:52:21.856Z,100703.75
2023-02-24T11:57:31.888Z,100706.56
2023-02-24T12:02:43.574Z,100701.87
2023-02-24T12:07:52.374Z,100699.16
2023-02-24T12:13:05.298Z,100693.81
2023-02-24T12:18:19.906Z,100686.00
2023-02-24T12:23:30.447Z,100676.25
2023-02-24T12:28:45.994Z,100672.03
2023-02-24T12:34:00.330Z,100658.94
2023-02-24T12:39:15.848Z,100665.06
2023-02-24T12:44:31.117Z,100665.22
2023-02-24T12:49:56.419Z,100652.31
2023-02-24T12:55:12.725Z,100630.19
2023-02-24T13:00:23.534Z,100633.28
2023-02-24T13:05:33.219Z,100629.31
2023-02-24T13:10:46.462Z,100615.12
2023-02-24T13:15:52.750Z,100612.78
2023-02-24T13:21:05.865Z,100616.31
2023-02-24T13:26:11.404Z,100608.44
2023-02-24T13:31:15.585Z,100609.28
2023-02-24T13:36:21.968Z,100595.41
2023-02-24T13:41:40.772Z,100567.72
2023-02-24T13:46:57.250Z,100569.59
2023-02-24T13:52:04.248Z,100553.69
2023-02-24T13:57:39.482Z,100565.22
2023-02-24T14:02:44.984Z,100549.56
2023-02-24T14:07:51.442Z,100548.47
2023-02-24T14:13:04.154Z,100561.16
2023-02-24T14:18:07.882Z,100536.75
2023-02-24T14:23:23.262Z,100526.50
2023-02-24T14:28:31.222Z,100530.03
2023-02-24T14:33:38.074Z,100530.72
2023-02-24T14:38:45.257Z,100522.59
2023-02-24T14:43:50.436Z,100520.53
2023-02-24T14:48:56.314Z,100525.03
2023-02-24T14:54:04.461Z,100509.41
2023-02-24T14:59:16.684Z,100517.09
2023-02-24T15:04:31.661Z,100509.91
2023-02-24T15:09:37.633Z,100492.66
2023-02-24T15:14:48.918Z,100504.50
2023-02-24T15:19:55.558Z,100499.72
2023-02-24T15:25:18.466Z,100518.75
2023-02-24T15:30:33.839Z,100523.16
2023-02-24T15:35:47.766Z,100504.84
2023-02-24T15:40:55.737Z,100477.28
2023-02-24T15:46:00.989Z,100495.00
2023-02-24T15:51:06.788Z,100490.12
2023-02-24T15:56:10.596Z,100485.19
2023-02-24T16:01:15.921Z,100493.09
2023-02-24T16:06:21.876Z,100493.06
2023-02-24T16:11:29.022Z,100491.69
2023-02-24T16:16:34.259Z,100496.69
2023-02-24T16:21:37.982Z,100492.84
2023-02-24T16:26:42.015Z,100498.72
2023-02-24T16:31:47.393Z,100493.41
2023-02-24T16:36:51.732Z,100502.38
2023-02-24T16:41:55.482Z,100511.13
2023-02-24T16:47:00.876Z,100496.75
2023-02-24T16:52:04.594Z,100504.97
2023-02-24T16:57:08.312Z,100507.78
2023-02-24T17:02:21.141Z,100516.00
2023-02-24T17:07:24.843Z,100511.50
2023-02-24T17:12:28.626Z,100510.03
2023-02-24T17:17:33.708Z,100521.87
2023-02-24T17:22:37.503Z,100517.97
2023-02-24T17:27:41.213Z,100525.31
2023-02-24T17:32:46.357Z,100531.03
2023-02-24T17:37:50.390Z,100542.72
2023-02-24T17:42:54.235Z,100537.44
2023-02-24T17:47:59.296Z,100566.81
2023-02-24T17:53:03.028Z,100566.19
2023-02-24T17:58:06.790Z,100575.47
2023-02-24T18:03:11.877Z,100584.50
2023-02-24T18:08:15.639Z,100581.75
2023-02-24T18:13:19.405Z,100577.94
2023-02-24T18:18:24.725Z,100584.19
2023-02-24T18:23:28.445Z,100599.31
2023-02-24T18:28:33.062Z,100593.03
2023-02-24T18:33:38.305Z,100595.69
2023-02-24T18:38:42.205Z,100585.53
2023-02-24T18:43:49.253Z,100607.13
2023-02-24T18:48:54.331Z,100614.47
2023-02-24T18:54:00.325Z,100624.06
2023-02-24T18:59:04.909Z,100616.63
2023-02-24T19:04:10.247Z,100618.59
2023-02-24T19:09:13.934Z,100636.63
2023-02-24T19:14:17.774Z,100627.78
2023-02-24T19:19:22.839Z,100645.03
2023-02-24T19:24:26.586Z,100636.63
2023-02-24T19:29:30.256Z,100643.34
2023-02-24T19:34:35.306Z,100643.97
2023-02-24T19:39:39.043Z,100642.09
2023-02-24T19:44:42.876Z,100642.00
2023-02-24T19:49:47.915Z,100635.88
2023-02-24T19:54:51.931Z,100641.72
2023-02-24T19:59:55.648Z,100639.97
2023-02-24T20:05:01.469Z,100637.37
2023-02-24T20:10:05.996Z,100636.31
2023-02-24T20:15:11.031Z,100653.00
2023-02-24T20:20:16.142Z,100655.06
2023-02-24T20:25:19.840Z,100666.03
2023-02-24T20:30:23.540Z,100660.13
2023-02-24T20:35:28.626Z,100662.50
2023-02-24T20:40:33.983Z,100663.41
2023-02-24T20:45:40.864Z,100665.75
2023-02-24T20:50:46.138Z,100671.09
2023-02-24T20:55:50.097Z,100665.69
2023-02-24T21:00:53.883Z,100677.37
2023-02-24T21:06:09.552Z,100690.12
2023-02-24T21:11:16.004Z,100697.31
2023-02-24T21:16:22.230Z,100681.84
2023-02-24T21:21:28.230Z,100703.88
2023-02-24T21:26:31.963Z,100710.19
2023-02-24T21:31:35.795Z,100706.38
2023-02-24T21:36:41.007Z,100705.37
2023-02-24T21:41:45.598Z,100701.81
2023-02-24T21:46:49.750Z,100700.25
2023-02-24T21:51:55.322Z,100709.78
2023-02-24T21:56:59.170Z,100712.75
2023-02-24T22:02:02.980Z,100720.75
2023-02-24T22:07:08.078Z,100731.94
2023-02-24T22:12:11.801Z,100727.75
2023-02-24T22:17:15.544Z,100722.00
2023-02-24T22:22:20.592Z,100715.44
2023-02-24T22:27:24.381Z,100717.81
2023-02-24T22:32:29.795Z,100713.94
2023-02-24T22:37:35.828Z,100719.53
2023-02-24T22:42:39.664Z,100723.47
2023-02-24T22:47:43.454Z,100726.25
2023-02-24T22:52:49.092Z,100725.66
2023-02-24T22:57:52.807Z,100727.63
2023-02-24T23:02:56.528Z,100753.94
2023-02-24T23:08:03.366Z,100767.84
2023-02-24T23:13:07.030Z,100736.88
2023-02-24T23:18:10.777Z,100739.06
2023-02-24T23:23:15.952Z,100743.31
2023-02-24T23:28:20.177Z,100748.03
2023-02-24T23:33:24.069Z,100745.37
2023-02-24T23:38:29.111Z,100756.09
2023-02-24T23:43:32.848Z,100755.25
2023-02-24T23:48:37.147Z,100764.25
2023-02-24T23:53:44.676Z,100768.28
2023-02-24T23:58:51.635Z,100765.41
